createdAt,value
2019-05-03T02:04:18.732Z,99.90
2019-05-03T02:06:47.577Z,99.90
2019-05-03T02:09:16.441Z,99.90
2019-05-03T02:11:45.350Z,99.90
2019-05-03T02:14:14.182Z,99.90
2019-05-03T02:16:43.022Z,99.90
2019-05-03T02:19:12.661Z,99.90
2019-05-03T02:21:41.774Z,99.90
2019-05-03T02:24:11.779Z,99.90
2019-05-03T02:26:42.476Z,99.90
2019-05-03T02:29:12.595Z,99.90
2019-05-03T02:31:43.561Z,99.90
2019-05-03T02:34:12.548Z,99.90
2019-05-03T02:36:42.866Z,99.90
2019-05-03T02:39:13.722Z,99.90
2019-05-03T02:41:45.214Z,99.90
2019-05-03T02:44:15.602Z,99.90
2019-05-03T02:46:57.952Z,99.90
2019-05-03T02:49:28.371Z,99.90
2019-05-03T02:51:57.236Z,99.90
2019-05-03T02:54:26.837Z,99.90
2019-05-03T02:56:56.690Z,99.90
2019-05-03T02:59:26.461Z,99.90
2019-05-03T03:01:56.176Z,99.90
2019-05-03T03:04:26.461Z,99.90
2019-05-03T03:06:58.180Z,99.90
2019-05-03T03:09:28.683Z,99.90
2019-05-03T03:11:59.249Z,99.90
2019-05-03T03:14:30.451Z,99.90
2019-05-03T03:17:01.570Z,99.90
2019-05-03T03:19:30.713Z,99.90
2019-05-03T03:22:05.879Z,99.90
2019-05-03T03:24:36.700Z,99.90
2019-05-03T03:27:08.351Z,99.90
2019-05-03T03:29:38.674Z,99.90
2019-05-03T03:32:21.871Z,99.90
2019-05-03T03:35:06.129Z,99.90
2019-05-03T03:37:35.219Z,99.90
2019-05-03T03:40:05.997Z,99.90
2019-05-03T03:42:36.336Z,99.90
2019-05-03T03:45:06.303Z,99.90
2019-05-03T03:47:38.212Z,99.90
2019-05-03T03:50:07.779Z,99.90
2019-05-03T03:52:38.111Z,99.90
2019-05-03T03:55:06.981Z,99.90
2019-05-03T03:57:36.623Z,99.90
2019-05-03T04:00:07.645Z,99.90
2019-05-03T04:02:37.590Z,99.90
2019-05-03T04:05:08.421Z,99.90
2019-05-03T04:07:37.449Z,99.90
2019-05-03T04:10:07.921Z,99.90
2019-05-03T04:12:37.113Z,99.90
2019-05-03T04:15:08.233Z,99.90
2019-05-03T04:17:56.437Z,99.90
2019-05-03T04:20:26.502Z,99.90
2019-05-03T04:22:56.194Z,99.90
2019-05-03T04:25:26.189Z,99.90
2019-05-03T04:27:56.102Z,99.90
2019-05-03T04:30:25.687Z,99.90
2019-05-03T04:32:56.467Z,99.90
2019-05-03T04:35:26.495Z,99.90
2019-05-03T04:37:56.091Z,99.90
2019-05-03T04:40:26.019Z,99.90
2019-05-03T04:42:55.755Z,99.90
2019-05-03T04:45:25.484Z,99.90
2019-05-03T04:47:56.047Z,99.90
2019-05-03T04:50:25.816Z,99.90
2019-05-03T04:52:56.619Z,99.90
2019-05-03T04:55:26.617Z,99.90
2019-05-03T04:57:56.328Z,99.90
2019-05-03T05:00:25.872Z,99.90
2019-05-03T05:02:55.363Z,99.90
2019-05-03T05:05:26.076Z,99.00
2019-05-03T05:07:55.769Z,98.60
2019-05-03T05:10:26.177Z,98.00
2019-05-03T05:12:55.392Z,96.90
2019-05-03T05:15:26.324Z,96.70
2019-05-03T05:18:02.365Z,96.60
2019-05-03T05:20:42.144Z,96.60
2019-05-03T05:23:11.071Z,96.60
2019-05-03T05:25:57.975Z,95.90
2019-05-03T05:28:44.781Z,96.10
2019-05-03T05:31:15.134Z,95.50
2019-05-03T05:33:44.657Z,95.70
2019-05-03T05:36:15.282Z,95.90
2019-05-03T05:38:45.028Z,96.10
2019-05-03T05:41:15.646Z,95.70
2019-05-03T05:43:44.851Z,95.60
2019-05-03T05:46:14.665Z,94.80
2019-05-03T05:48:50.887Z,94.90
2019-05-03T05:51:19.748Z,94.90
2019-05-03T05:53:48.622Z,94.00
2019-05-03T05:56:21.857Z,92.20
2019-05-03T05:58:55.455Z,91.40
2019-05-03T06:01:26.007Z,90.90
2019-05-03T06:03:55.119Z,91.10
2019-05-03T06:06:28.395Z,91.30
2019-05-03T06:09:05.172Z,91.20
2019-05-03T06:11:35.562Z,90.60
2019-05-03T06:14:06.004Z,90.30
2019-05-03T06:16:36.484Z,91.60
2019-05-03T06:19:09.808Z,90.00
2019-05-03T06:21:44.797Z,90.00
2019-05-03T06:24:21.357Z,84.90
2019-05-03T06:27:06.876Z,77.40
2019-05-03T06:29:35.739Z,76.30
2019-05-03T06:32:11.914Z,78.00
2019-05-03T06:34:40.808Z,80.00
2019-05-03T06:37:11.226Z,77.90
2019-05-03T06:39:40.159Z,75.40
2019-05-03T06:42:09.931Z,72.40
2019-05-03T06:44:39.503Z,69.70
2019-05-03T06:47:10.466Z,68.40
2019-05-03T06:49:39.195Z,70.30
2019-05-03T06:52:09.401Z,71.50
2019-05-03T06:54:38.341Z,69.10
2019-05-03T06:57:09.624Z,67.00
2019-05-03T06:59:55.190Z,65.50
2019-05-03T07:02:35.529Z,62.00
2019-05-03T07:05:08.234Z,63.80
2019-05-03T07:07:41.630Z,65.00
2019-05-03T07:10:15.013Z,69.50
2019-05-03T07:13:00.596Z,68.70
2019-05-03T07:15:29.486Z,70.10
2019-05-03T07:17:58.539Z,69.50
2019-05-03T07:20:27.388Z,69.30
2019-05-03T07:22:56.592Z,69.80
2019-05-03T07:25:25.982Z,67.20
2019-05-03T07:27:55.551Z,64.50
2019-05-03T07:30:25.106Z,57.50
2019-05-03T07:32:56.443Z,53.90
2019-05-03T07:35:25.307Z,50.90
2019-05-03T07:37:55.350Z,48.50
2019-05-03T07:40:25.348Z,49.10
2019-05-03T07:42:55.539Z,48.20
2019-05-03T07:45:25.468Z,48.00
2019-05-03T07:47:55.786Z,48.00
2019-05-03T07:50:25.766Z,47.60
2019-05-03T07:52:55.564Z,46.10
2019-05-03T07:55:42.500Z,46.20
2019-05-03T07:58:14.891Z,45.30
2019-05-03T08:00:44.620Z,44.20
2019-05-03T08:03:15.441Z,43.10
2019-05-03T08:05:45.417Z,42.80
2019-05-03T08:08:15.177Z,44.20
2019-05-03T08:10:45.057Z,45.10
2019-05-03T08:13:15.160Z,45.40
2019-05-03T08:15:45.187Z,44.10
2019-05-03T08:18:15.342Z,47.30
2019-05-03T08:20:45.148Z,44.70
2019-05-03T08:23:26.354Z,42.40
2019-05-03T08:25:44.933Z,42.50
2019-05-03T08:28:14.562Z,41.40
2019-05-03T08:31:01.692Z,38.50
2019-05-03T08:33:32.182Z,35.30
2019-05-03T08:36:01.037Z,33.50
2019-05-03T08:38:29.858Z,34.20
2019-05-03T08:41:00.269Z,35.20
2019-05-03T08:43:29.145Z,34.60
2019-05-03T08:45:57.999Z,34.10
2019-05-03T08:48:26.877Z,34.10
2019-05-03T08:50:55.738Z,33.30
2019-05-03T08:53:25.619Z,33.30
2019-05-03T08:55:55.283Z,33.00
2019-05-03T08:58:25.601Z,34.40
2019-05-03T09:00:54.938Z,33.30
2019-05-03T09:03:24.963Z,32.10
2019-05-03T09:05:56.339Z,32.20
2019-05-03T09:08:25.000Z,33.60
2019-05-03T09:11:05.041Z,35.90
2019-05-03T09:13:38.552Z,38.30
2019-05-03T09:16:07.410Z,38.80
2019-05-03T09:18:36.303Z,39.20
2019-05-03T09:21:05.260Z,39.90
2019-05-03T09:23:35.664Z,40.70
2019-05-03T09:26:04.809Z,40.10
2019-05-03T09:28:34.875Z,40.10
2019-05-03T09:31:04.649Z,39.70
2019-05-03T09:33:35.541Z,40.00
2019-05-03T09:36:05.401Z,38.90
2019-05-03T09:38:35.027Z,37.70
2019-05-03T09:41:05.219Z,37.70
2019-05-03T09:43:35.703Z,35.10
2019-05-03T09:46:05.119Z,35.40
2019-05-03T09:48:34.780Z,34.80
2019-05-03T09:51:05.150Z,34.50
2019-05-03T09:53:55.481Z,35.80
2019-05-03T09:56:52.771Z,37.00
2019-05-03T09:59:14.762Z,35.80
2019-05-03T10:01:45.638Z,34.30
2019-05-03T10:04:14.361Z,32.20
2019-05-03T10:06:45.169Z,32.00
2019-05-03T10:09:15.380Z,31.90
2019-05-03T10:11:45.847Z,31.70
2019-05-03T10:14:15.560Z,32.40
2019-05-03T10:16:51.945Z,32.00
2019-05-03T10:19:33.737Z,31.40
2019-05-03T10:21:51.359Z,33.00
2019-05-03T10:24:20.190Z,35.10
2019-05-03T10:27:08.330Z,36.80
2019-05-03T10:29:37.176Z,37.00
2019-05-03T10:32:16.909Z,37.00
2019-05-03T10:34:56.516Z,37.80
2019-05-03T10:37:30.905Z,38.70
2019-05-03T10:40:07.759Z,40.80
2019-05-03T10:42:35.442Z,38.40
2019-05-03T10:45:05.295Z,38.80
2019-05-03T10:47:34.955Z,38.00
2019-05-03T10:50:06.771Z,36.80
2019-05-03T10:52:38.279Z,37.00
2019-05-03T10:55:08.036Z,37.50
2019-05-03T10:57:38.485Z,38.80
2019-05-03T11:00:38.658Z,39.10
2019-05-03T11:02:42.621Z,39.80
2019-05-03T11:05:11.854Z,40.30
2019-05-03T11:07:40.698Z,40.70
2019-05-03T11:10:10.020Z,39.70
2019-05-03T11:12:38.864Z,40.00
2019-05-03T11:15:08.215Z,40.00
2019-05-03T11:17:37.142Z,39.60
2019-05-03T11:20:06.799Z,39.90
2019-05-03T11:22:35.653Z,40.60
2019-05-03T11:25:05.862Z,40.80
2019-05-03T11:27:48.348Z,40.90
2019-05-03T11:30:17.870Z,41.80
2019-05-03T11:32:55.653Z,42.00
2019-05-03T11:35:26.253Z,42.70
2019-05-03T11:37:56.682Z,41.80
2019-05-03T11:40:25.539Z,41.90
2019-05-03T11:42:56.006Z,42.20
2019-05-03T11:45:24.868Z,41.90
2019-05-03T11:47:55.031Z,42.00
2019-05-03T11:50:25.352Z,41.60
2019-05-03T11:52:55.392Z,42.20
2019-05-03T11:55:26.692Z,42.80
2019-05-03T11:57:56.629Z,42.50
2019-05-03T12:00:30.410Z,41.90
2019-05-03T12:03:16.264Z,41.00
2019-05-03T12:05:46.687Z,40.80
2019-05-03T12:08:15.548Z,41.50
2019-05-03T12:10:55.369Z,41.20
2019-05-03T12:13:16.577Z,42.30
2019-05-03T12:15:45.425Z,41.50
2019-05-03T12:18:16.349Z,41.80
2019-05-03T12:20:47.219Z,42.00
2019-05-03T12:23:16.367Z,41.30
2019-05-03T12:25:46.721Z,41.40
2019-05-03T12:28:16.024Z,42.30
2019-05-03T12:30:45.031Z,46.50
2019-05-03T12:33:15.350Z,49.40
2019-05-03T12:35:46.266Z,51.40
2019-05-03T12:38:16.524Z,53.80
2019-05-03T12:40:45.691Z,55.70
2019-05-03T12:43:14.983Z,57.00
2019-05-03T12:45:44.018Z,62.80
2019-05-03T12:48:12.963Z,74.90
2019-05-03T12:50:41.993Z,83.40
2019-05-03T12:53:11.181Z,90.90
2019-05-03T12:55:40.064Z,94.40
2019-05-03T12:58:08.949Z,95.70
2019-05-03T13:00:57.731Z,96.30
2019-05-03T13:03:34.344Z,98.00
2019-05-03T13:06:05.246Z,97.20
2019-05-03T13:08:38.652Z,95.00
2019-05-03T13:11:07.678Z,94.80
2019-05-03T13:13:36.491Z,95.20
2019-05-03T13:16:06.317Z,95.30
2019-05-03T13:18:35.534Z,93.50
2019-05-03T13:21:05.689Z,93.60
2019-05-03T13:23:35.760Z,92.40
2019-05-03T13:26:05.840Z,91.10
2019-05-03T13:28:35.300Z,91.50
2019-05-03T13:31:06.061Z,90.80
2019-05-03T13:33:35.187Z,90.70
2019-05-03T13:36:04.681Z,91.00
2019-05-03T13:38:35.001Z,89.60
2019-05-03T13:41:06.457Z,89.00
2019-05-03T13:43:35.127Z,90.10
2019-05-03T13:46:05.166Z,90.70
2019-05-03T13:48:42.565Z,91.30
2019-05-03T13:51:05.284Z,91.20
2019-05-03T13:53:34.971Z,90.90
2019-05-03T13:56:04.805Z,91.10
2019-05-03T13:58:35.888Z,91.50
2019-05-03T14:01:05.432Z,90.70
2019-05-03T14:03:35.440Z,90.10
2019-05-03T14:06:13.434Z,90.50
2019-05-03T14:08:42.421Z,90.80
2019-05-03T14:11:11.282Z,90.90
2019-05-03T14:13:40.137Z,90.80
2019-05-03T14:16:09.028Z,89.80
2019-05-03T14:18:40.994Z,89.10
2019-05-03T14:21:14.964Z,89.60
2019-05-03T14:24:01.787Z,90.70
2019-05-03T14:26:30.682Z,90.80
2019-05-03T14:28:59.522Z,90.40
2019-05-03T14:31:28.372Z,91.00
2019-05-03T14:33:57.278Z,92.90
2019-05-03T14:36:26.107Z,93.30
2019-05-03T14:38:55.162Z,92.60
2019-05-03T14:41:25.464Z,91.40
2019-05-03T14:43:55.666Z,90.60
2019-05-03T14:46:32.919Z,90.80
2019-05-03T14:48:55.387Z,88.30
2019-05-03T14:51:25.330Z,88.40
2019-05-03T14:53:56.944Z,91.20
2019-05-03T14:56:26.714Z,90.10
2019-05-03T14:59:14.875Z,87.90
2019-05-03T15:01:45.437Z,88.40
2019-05-03T15:04:15.162Z,86.60
2019-05-03T15:06:46.063Z,87.70
2019-05-03T15:09:16.893Z,88.30
2019-05-03T15:11:45.366Z,89.20
2019-05-03T15:14:14.614Z,88.80
2019-05-03T15:16:45.062Z,89.00
2019-05-03T15:19:14.777Z,88.70
2019-05-03T15:21:45.258Z,90.10
2019-05-03T15:24:15.098Z,89.90
2019-05-03T15:26:44.733Z,90.30
2019-05-03T15:29:15.563Z,90.60
2019-05-03T15:31:44.812Z,89.50
2019-05-03T15:34:15.221Z,90.00
2019-05-03T15:36:45.873Z,90.60
2019-05-03T15:39:15.395Z,90.80
2019-05-03T15:41:45.016Z,91.10
2019-05-03T15:44:21.388Z,91.70
2019-05-03T15:47:09.446Z,91.90
2019-05-03T15:49:37.441Z,92.40
2019-05-03T15:52:06.284Z,93.10
2019-05-03T15:54:35.381Z,92.40
2019-05-03T15:57:05.109Z,92.50
2019-05-03T15:59:34.080Z,93.10
2019-05-03T16:02:04.570Z,93.70
2019-05-03T16:04:35.715Z,93.90
2019-05-03T16:07:04.954Z,93.90
2019-05-03T16:09:35.206Z,94.50
2019-05-03T16:12:05.135Z,94.50
2019-05-03T16:14:35.072Z,95.10
2019-05-03T16:17:04.442Z,95.50
2019-05-03T16:19:35.418Z,95.60
2019-05-03T16:22:04.868Z,95.40
2019-05-03T16:24:35.538Z,95.70
2019-05-03T16:27:06.152Z,96.20
2019-05-03T16:29:35.135Z,96.50
2019-05-03T16:32:05.193Z,96.80
2019-05-03T16:34:35.074Z,97.00
2019-05-03T16:37:04.366Z,97.50
2019-05-03T16:39:35.308Z,97.50
2019-05-03T16:42:04.201Z,97.30
2019-05-03T16:44:35.024Z,96.80
2019-05-03T16:47:07.252Z,96.60
2019-05-03T16:49:35.582Z,96.40
2019-05-03T16:52:05.601Z,96.10
2019-05-03T16:54:34.955Z,96.30
2019-05-03T16:57:05.819Z,97.10
2019-05-03T16:59:35.242Z,96.00
2019-05-03T17:02:05.751Z,96.10
2019-05-03T17:04:39.488Z,96.50
2019-05-03T17:07:09.894Z,96.80
2019-05-03T17:09:51.996Z,96.60
2019-05-03T17:12:37.985Z,96.60
2019-05-03T17:15:08.673Z,96.70
2019-05-03T17:17:37.523Z,96.60
2019-05-03T17:20:07.780Z,96.70
2019-05-03T17:22:36.714Z,97.20
2019-05-03T17:25:06.740Z,97.10
2019-05-03T17:27:35.720Z,96.70
2019-05-03T17:30:07.588Z,96.70
2019-05-03T17:32:36.457Z,97.20
2019-05-03T17:35:08.293Z,97.40
2019-05-03T17:37:37.221Z,97.40
2019-05-03T17:40:25.717Z,97.50
2019-05-03T17:42:59.131Z,97.80
2019-05-03T17:45:32.261Z,98.00
2019-05-03T17:48:01.938Z,98.20
2019-05-03T17:50:30.849Z,98.50
2019-05-03T17:53:05.242Z,98.60
2019-05-03T17:55:41.932Z,98.90
2019-05-03T17:58:12.377Z,99.00
2019-05-03T18:00:44.336Z,98.90
2019-05-03T18:03:14.317Z,98.80
2019-05-03T18:05:53.751Z,98.70
2019-05-03T18:08:30.420Z,98.70
2019-05-03T18:11:14.656Z,98.60
2019-05-03T18:13:44.622Z,99.40
2019-05-03T18:16:13.488Z,99.60
2019-05-03T18:18:42.355Z,99.60
2019-05-03T18:21:11.253Z,99.70
2019-05-03T18:23:40.091Z,99.60
2019-05-03T18:26:08.942Z,99.80
2019-05-03T18:28:38.149Z,99.90
2019-05-03T18:31:08.733Z,99.80
2019-05-03T18:33:37.508Z,99.90
2019-05-03T18:36:06.454Z,99.90
2019-05-03T18:38:41.178Z,99.90
2019-05-03T18:41:10.778Z,99.90
2019-05-03T18:43:41.198Z,99.90
2019-05-03T18:46:11.622Z,99.90
2019-05-03T18:48:41.439Z,99.90
2019-05-03T18:51:10.288Z,99.90
2019-05-03T18:53:39.145Z,99.90
2019-05-03T18:56:08.058Z,99.90
2019-05-03T18:58:36.906Z,99.90
2019-05-03T19:01:06.250Z,99.90
2019-05-03T19:03:35.262Z,99.90
2019-05-03T19:06:08.767Z,99.90
2019-05-03T19:08:54.362Z,99.90
2019-05-03T19:11:27.753Z,99.90
2019-05-03T19:14:04.694Z,99.90
2019-05-03T19:16:40.992Z,99.90
2019-05-03T19:19:10.885Z,99.90
2019-05-03T19:21:39.743Z,99.90
2019-05-03T19:24:08.582Z,99.90
2019-05-03T19:26:37.505Z,99.90
2019-05-03T19:29:06.346Z,99.90
2019-05-03T19:31:35.627Z,99.90
2019-05-03T19:34:06.030Z,99.90
2019-05-03T19:36:37.209Z,99.90
2019-05-03T19:39:07.287Z,99.90
2019-05-03T19:41:36.199Z,99.90
2019-05-03T19:44:05.172Z,99.90
2019-05-03T19:46:35.119Z,99.90
2019-05-03T19:49:05.082Z,99.90
2019-05-03T19:51:34.427Z,99.90
2019-05-03T19:54:05.399Z,99.90
2019-05-03T19:56:34.390Z,99.90
2019-05-03T19:59:04.967Z,99.90
2019-05-03T20:01:55.227Z,99.90
2019-05-03T20:04:25.784Z,99.90
2019-05-03T20:07:07.982Z,99.90
2019-05-03T20:09:36.830Z,99.90
2019-05-03T20:12:05.713Z,99.90
2019-05-03T20:14:35.703Z,99.90
2019-05-03T20:17:06.613Z,99.90
2019-05-03T20:19:35.274Z,99.90
2019-05-03T20:22:05.169Z,99.90
2019-05-03T20:24:34.117Z,99.90
2019-05-03T20:27:04.675Z,99.90
2019-05-03T20:29:34.486Z,99.90
2019-05-03T20:32:05.610Z,99.90
2019-05-03T20:34:33.932Z,99.90
2019-05-03T20:37:05.267Z,99.90
2019-05-03T20:39:34.808Z,99.90
2019-05-03T20:42:04.520Z,99.90
2019-05-03T20:44:35.358Z,99.90
2019-05-03T20:47:08.720Z,99.90
2019-05-03T20:49:37.572Z,99.90
2019-05-03T20:52:07.303Z,99.90
2019-05-03T20:54:36.152Z,99.90
2019-05-03T20:57:05.402Z,99.90
2019-05-03T20:59:44.461Z,99.90
2019-05-03T21:02:06.029Z,99.90
2019-05-03T21:04:35.427Z,99.90
2019-05-03T21:07:04.764Z,99.90
2019-05-03T21:09:34.603Z,99.90
2019-05-03T21:12:04.500Z,99.90
2019-05-03T21:14:35.038Z,99.90
2019-05-03T21:17:05.694Z,99.90
2019-05-03T21:19:36.130Z,99.90
2019-05-03T21:22:06.643Z,99.90
2019-05-03T21:24:37.052Z,99.90
2019-05-03T21:27:05.901Z,99.90
2019-05-03T21:29:36.357Z,99.90
2019-05-03T21:32:05.207Z,99.90
2019-05-03T21:34:34.564Z,99.90
2019-05-03T21:37:03.664Z,99.90
2019-05-03T21:39:34.725Z,99.90
2019-05-03T21:42:04.742Z,99.90
2019-05-03T21:44:35.055Z,99.90
2019-05-03T21:47:11.016Z,99.90
2019-05-03T21:49:41.481Z,99.90
2019-05-03T21:52:10.332Z,99.90
2019-05-03T21:54:40.048Z,99.90
2019-05-03T21:57:08.956Z,99.90
2019-05-03T21:59:37.816Z,99.90
2019-05-03T22:02:06.768Z,99.90
2019-05-03T22:04:35.702Z,99.90
2019-05-03T22:07:05.232Z,99.90
2019-05-03T22:09:34.843Z,99.90
2019-05-03T22:12:05.195Z,99.90
2019-05-03T22:14:35.812Z,99.90
2019-05-03T22:17:22.969Z,99.90
2019-05-03T22:19:54.324Z,99.90
2019-05-03T22:22:36.957Z,99.90
2019-05-03T22:25:15.087Z,99.90
2019-05-03T22:27:45.532Z,99.90
2019-05-03T22:30:14.985Z,99.90
2019-05-03T22:32:44.537Z,99.90
2019-05-03T22:35:15.539Z,99.90
2019-05-03T22:37:44.656Z,99.90
2019-05-03T22:40:14.635Z,99.90
2019-05-03T22:42:44.786Z,99.90
2019-05-03T22:45:13.773Z,99.90
2019-05-03T22:47:44.467Z,99.90
2019-05-03T22:50:14.924Z,99.90
2019-05-03T22:52:45.526Z,99.90
2019-05-03T22:58:05.517Z,99.90
2019-05-03T23:00:35.411Z,99.90
2019-05-03T23:03:04.428Z,99.90
2019-05-03T23:05:34.654Z,99.90
2019-05-03T23:08:05.474Z,99.90
2019-05-03T23:10:34.864Z,99.90
2019-05-03T23:13:05.004Z,99.90
2019-05-03T23:15:34.776Z,99.90
2019-05-03T23:18:04.989Z,99.90
2019-05-03T23:20:41.325Z,99.90
2019-05-03T23:23:11.738Z,99.90
2019-05-03T23:25:40.596Z,99.90
2019-05-03T23:28:09.500Z,99.90
2019-05-03T23:30:38.367Z,99.90
2019-05-03T23:33:07.216Z,99.90
2019-05-03T23:35:36.109Z,99.90
2019-05-03T23:38:04.957Z,99.90
2019-05-03T23:40:34.767Z,99.90
2019-05-03T23:43:05.197Z,99.90
2019-05-03T23:45:34.763Z,99.90
2019-05-03T23:48:04.677Z,99.90
2019-05-03T23:50:35.377Z,99.90
2019-05-03T23:53:04.936Z,99.90
2019-05-03T23:55:35.560Z,99.90
2019-05-03T23:58:05.310Z,99.90
